sensor_id;sensor_type;location;lat;lon;timestamp;pressure;altitude;pressure_sealevel;temperature;humidity
15880;BME280;61999;51.514;14.614;2023-01-28T00:02:03;100876.44;;;-1.77;54.98
15880;BME280;61999;51.514;14.614;2023-01-28T00:04:31;100872.19;;;-1.80;54.67
15880;BME280;61999;51.514;14.614;2023-01-28T00:06:59;100877.19;;;-1.71;54.66
15880;BME280;61999;51.514;14.614;2023-01-28T00:09:27;100864.47;;;-1.83;54.10
15880;BME280;61999;51.514;14.614;2023-01-28T00:11:55;100870.38;;;-1.75;53.93
15880;BME280;61999;51.514;14.614;2023-01-28T00:14:25;100876.50;;;-1.82;53.93
15880;BME280;61999;51.514;14.614;2023-01-28T00:16:53;100877.28;;;-1.77;53.96
15880;BME280;61999;51.514;14.614;2023-01-28T00:19:31;100876.09;;;-2.15;53.91
15880;BME280;61999;51.514;14.614;2023-01-28T00:21:59;100876.16;;;-2.18;54.12
15880;BME280;61999;51.514;14.614;2023-01-28T00:24:27;100881.00;;;-1.93;54.13
15880;BME280;61999;51.514;14.614;2023-01-28T00:26:55;100876.63;;;-1.91;53.74
15880;BME280;61999;51.514;14.614;2023-01-28T00:29:23;100874.25;;;-2.03;53.68
15880;BME280;61999;51.514;14.614;2023-01-28T00:31:51;100876.78;;;-1.99;54.18
15880;BME280;61999;51.514;14.614;2023-01-28T00:34:20;100873.69;;;-2.27;53.79
15880;BME280;61999;51.514;14.614;2023-01-28T00:36:49;100873.78;;;-2.36;53.79
15880;BME280;61999;51.514;14.614;2023-01-28T00:39:24;100879.50;;;-2.10;54.10
15880;BME280;61999;51.514;14.614;2023-01-28T00:41:53;100880.13;;;-1.92;53.75
15880;BME280;61999;51.514;14.614;2023-01-28T00:44:21;100884.34;;;-1.88;54.03
15880;BME280;61999;51.514;14.614;2023-01-28T00:46:49;100881.28;;;-2.15;53.78
15880;BME280;61999;51.514;14.614;2023-01-28T00:49:17;100886.22;;;-1.99;53.89
15880;BME280;61999;51.514;14.614;2023-01-28T00:51:45;100880.00;;;-2.49;54.99
15880;BME280;61999;51.514;14.614;2023-01-28T00:54:16;100876.19;;;-2.21;53.99
15880;BME280;61999;51.514;14.614;2023-01-28T00:56:44;100879.44;;;-2.06;53.53
15880;BME280;61999;51.514;14.614;2023-01-28T00:59:12;100874.25;;;-2.03;53.44
15880;BME280;61999;51.514;14.614;2023-01-28T01:01:40;100882.78;;;-1.98;53.80
15880;BME280;61999;51.514;14.614;2023-01-28T01:04:08;100882.34;;;-2.31;53.75
15880;BME280;61999;51.514;14.614;2023-01-28T01:06:38;100877.94;;;-2.23;53.62
15880;BME280;61999;51.514;14.614;2023-01-28T01:09:10;100877.88;;;-2.20;52.98
15880;BME280;61999;51.514;14.614;2023-01-28T01:11:40;100886.47;;;-2.18;53.25
15880;BME280;61999;51.514;14.614;2023-01-28T01:14:10;100882.25;;;-2.25;52.86
15880;BME280;61999;51.514;14.614;2023-01-28T01:16:38;100891.25;;;-2.57;53.95
15880;BME280;61999;51.514;14.614;2023-01-28T01:19:06;100896.94;;;-2.27;53.67
15880;BME280;61999;51.514;14.614;2023-01-28T01:21:35;100899.34;;;-2.16;53.64
15880;BME280;61999;51.514;14.614;2023-01-28T01:24:03;100894.31;;;-2.25;53.17
15880;BME280;61999;51.514;14.614;2023-01-28T01:26:31;100900.63;;;-2.49;53.75
15880;BME280;61999;51.514;14.614;2023-01-28T01:29:01;100906.69;;;-2.53;53.30
15880;BME280;61999;51.514;14.614;2023-01-28T01:31:29;100904.75;;;-3.18;54.57
15880;BME280;61999;51.514;14.614;2023-01-28T01:33:56;100900.81;;;-2.68;54.30
15880;BME280;61999;51.514;14.614;2023-01-28T01:36:25;100904.34;;;-2.75;53.85
15880;BME280;61999;51.514;14.614;2023-01-28T01:38:55;100910.22;;;-2.61;53.56
15880;BME280;61999;51.514;14.614;2023-01-28T01:41:28;100903.09;;;-2.39;53.04
15880;BME280;61999;51.514;14.614;2023-01-28T01:43:59;100905.84;;;-2.52;52.94
15880;BME280;61999;51.514;14.614;2023-01-28T01:46:36;100903.59;;;-2.88;54.23
15880;BME280;61999;51.514;14.614;2023-01-28T01:49:15;100903.63;;;-2.91;54.05
15880;BME280;61999;51.514;14.614;2023-01-28T01:51:49;100909.72;;;-2.96;54.30
15880;BME280;61999;51.514;14.614;2023-01-28T01:54:21;100906.09;;;-2.77;53.66
15880;BME280;61999;51.514;14.614;2023-01-28T01:56:52;100901.25;;;-3.11;54.92
15880;BME280;61999;51.514;14.614;2023-01-28T01:59:24;100901.88;;;-2.84;53.63
15880;BME280;61999;51.514;14.614;2023-01-28T02:01:56;100898.97;;;-2.57;53.36
15880;BME280;61999;51.514;14.614;2023-01-28T02:04:30;100898.88;;;-2.44;53.02
15880;BME280;61999;51.514;14.614;2023-01-28T02:07:00;100902.41;;;-2.53;53.16
15880;BME280;61999;51.514;14.614;2023-01-28T02:09:31;100900.78;;;-2.65;53.25
15880;BME280;61999;51.514;14.614;2023-01-28T02:12:06;100899.03;;;-2.60;52.75
15880;BME280;61999;51.514;14.614;2023-01-28T02:14:41;100901.59;;;-2.60;53.06
15880;BME280;61999;51.514;14.614;2023-01-28T02:17:12;100902.63;;;-2.73;53.19
15880;BME280;61999;51.514;14.614;2023-01-28T02:19:47;100906.19;;;-2.86;53.29
15880;BME280;61999;51.514;14.614;2023-01-28T02:22:51;100907.56;;;-2.55;53.39
15880;BME280;61999;51.514;14.614;2023-01-28T02:25:56;100901.66;;;-2.66;53.18
15880;BME280;61999;51.514;14.614;2023-01-28T02:28:36;100902.56;;;-2.67;53.04
15880;BME280;61999;51.514;14.614;2023-01-28T02:31:13;100900.91;;;-2.74;52.81
15880;BME280;61999;51.514;14.614;2023-01-28T02:33:52;100908.97;;;-3.11;54.10
15880;BME280;61999;51.514;14.614;2023-01-28T02:36:42;100913.13;;;-2.94;53.27
15880;BME280;61999;51.514;14.614;2023-01-28T02:39:17;100910.69;;;-3.07;53.94
15880;BME280;61999;51.514;14.614;2023-01-28T02:41:54;100902.16;;;-3.13;53.43
15880;BME280;61999;51.514;14.614;2023-01-28T02:44:25;100904.88;;;-3.30;54.11
15880;BME280;61999;51.514;14.614;2023-01-28T02:46:53;100913.47;;;-3.34;54.85
15880;BME280;61999;51.514;14.614;2023-01-28T02:49:42;100910.56;;;-2.94;53.93
15880;BME280;61999;51.514;14.614;2023-01-28T02:52:45;100913.03;;;-2.85;53.59
15880;BME280;61999;51.514;14.614;2023-01-28T02:55:43;100919.63;;;-3.54;55.22
15880;BME280;61999;51.514;14.614;2023-01-28T02:58:25;100913.69;;;-3.68;55.77
15880;BME280;61999;51.514;14.614;2023-01-28T03:01:03;100917.03;;;-3.51;55.03
15880;BME280;61999;51.514;14.614;2023-01-28T03:03:48;100916.50;;;-4.14;56.82
15880;BME280;61999;51.514;14.614;2023-01-28T03:06:25;100934.63;;;-4.51;57.92
15880;BME280;61999;51.514;14.614;2023-01-28T03:09:00;100928.50;;;-4.15;57.05
15880;BME280;61999;51.514;14.614;2023-01-28T03:11:51;100935.88;;;-3.42;55.02
15880;BME280;61999;51.514;14.614;2023-01-28T03:14:39;100930.66;;;-3.30;54.28
15880;BME280;61999;51.514;14.614;2023-01-28T03:17:36;100935.88;;;-3.42;53.96
15880;BME280;61999;51.514;14.614;2023-01-28T03:20:26;100928.81;;;-3.16;53.50
15880;BME280;61999;51.514;14.614;2023-01-28T03:23:20;100933.38;;;-3.50;53.52
15880;BME280;61999;51.514;14.614;2023-01-28T03:26:09;100930.00;;;-3.61;54.43
15880;BME280;61999;51.514;14.614;2023-01-28T03:29:04;100937.63;;;-3.44;54.15
15880;BME280;61999;51.514;14.614;2023-01-28T03:31:53;100927.94;;;-3.16;53.16
15880;BME280;61999;51.514;14.614;2023-01-28T03:34:42;100932.28;;;-3.20;53.40
15880;BME280;61999;51.514;14.614;2023-01-28T03:37:30;100944.22;;;-3.10;53.05
15880;BME280;61999;51.514;14.614;2023-01-28T03:40:03;100936.34;;;-2.94;52.98
15880;BME280;61999;51.514;14.614;2023-01-28T03:42:32;100940.06;;;-3.31;53.14
15880;BME280;61999;51.514;14.614;2023-01-28T03:45:00;100946.81;;;-3.10;52.65
15880;BME280;61999;51.514;14.614;2023-01-28T03:47:31;100949.59;;;-3.37;52.55
15880;BME280;61999;51.514;14.614;2023-01-28T03:50:01;100951.25;;;-3.27;52.30
15880;BME280;61999;51.514;14.614;2023-01-28T03:52:32;100948.03;;;-3.58;51.94
15880;BME280;61999;51.514;14.614;2023-01-28T03:55:00;100952.13;;;-3.31;51.93
15880;BME280;61999;51.514;14.614;2023-01-28T03:57:39;100959.81;;;-3.28;51.69
15880;BME280;61999;51.514;14.614;2023-01-28T04:00:09;100956.41;;;-3.27;51.23
15880;BME280;61999;51.514;14.614;2023-01-28T04:02:37;100953.88;;;-3.36;51.78
15880;BME280;61999;51.514;14.614;2023-01-28T04:05:08;100954.56;;;-3.13;51.87
15880;BME280;61999;51.514;14.614;2023-01-28T04:07:38;100951.03;;;-3.03;51.72
15880;BME280;61999;51.514;14.614;2023-01-28T04:10:14;100957.25;;;-3.28;51.23
15880;BME280;61999;51.514;14.614;2023-01-28T04:12:47;100961.47;;;-3.16;51.24
15880;BME280;61999;51.514;14.614;2023-01-28T04:15:19;100958.81;;;-3.06;51.09
15880;BME280;61999;51.514;14.614;2023-01-28T04:17:50;100968.31;;;-3.14;51.29
15880;BME280;61999;51.514;14.614;2023-01-28T04:20:19;100967.75;;;-3.53;49.99
15880;BME280;61999;51.514;14.614;2023-01-28T04:22:47;100973.97;;;-3.91;50.80
15880;BME280;61999;51.514;14.614;2023-01-28T04:25:17;100971.34;;;-3.86;51.39
15880;BME280;61999;51.514;14.614;2023-01-28T04:31:45;100984.03;;;-3.51;50.72
15880;BME280;61999;51.514;14.614;2023-01-28T04:34:14;100987.38;;;-3.35;50.58
15880;BME280;61999;51.514;14.614;2023-01-28T04:36:45;100982.22;;;-3.33;49.94
15880;BME280;61999;51.514;14.614;2023-01-28T04:39:13;100982.56;;;-3.98;50.42
15880;BME280;61999;51.514;14.614;2023-01-28T04:41:42;100984.25;;;-3.97;51.07
15880;BME280;61999;51.514;14.614;2023-01-28T04:44:10;100984.31;;;-4.15;51.38
15880;BME280;61999;51.514;14.614;2023-01-28T04:46:39;100981.66;;;-3.94;51.01
15880;BME280;61999;51.514;14.614;2023-01-28T04:49:07;100981.50;;;-3.57;50.73
15880;BME280;61999;51.514;14.614;2023-01-28T04:51:35;100977.97;;;-3.45;50.16
15880;BME280;61999;51.514;14.614;2023-01-28T04:54:05;100984.03;;;-3.44;49.80
15880;BME280;61999;51.514;14.614;2023-01-28T04:56:33;100982.31;;;-3.49;49.77
15880;BME280;61999;51.514;14.614;2023-01-28T04:59:01;100986.59;;;-3.51;49.25
15880;BME280;61999;51.514;14.614;2023-01-28T05:01:29;100989.47;;;-4.21;51.42
15880;BME280;61999;51.514;14.614;2023-01-28T05:03:57;100996.25;;;-3.89;50.58
15880;BME280;61999;51.514;14.614;2023-01-28T05:06:31;100990.31;;;-4.18;50.31
15880;BME280;61999;51.514;14.614;2023-01-28T05:08:59;100996.31;;;-4.17;50.92
15880;BME280;61999;51.514;14.614;2023-01-28T05:11:28;100991.13;;;-4.08;50.91
15880;BME280;61999;51.514;14.614;2023-01-28T05:13:56;100994.56;;;-4.09;50.94
15880;BME280;61999;51.514;14.614;2023-01-28T05:16:24;100994.63;;;-4.21;50.53
15880;BME280;61999;51.514;14.614;2023-01-28T05:18:53;100995.50;;;-4.30;50.73
15880;BME280;61999;51.514;14.614;2023-01-28T05:21:21;100995.53;;;-4.48;51.12
15880;BME280;61999;51.514;14.614;2023-01-28T05:23:48;101001.56;;;-4.77;51.39
15880;BME280;61999;51.514;14.614;2023-01-28T05:26:17;101000.72;;;-5.10;52.82
15880;BME280;61999;51.514;14.614;2023-01-28T05:28:46;100994.69;;;-4.61;52.02
15880;BME280;61999;51.514;14.614;2023-01-28T05:31:14;100994.63;;;-4.24;50.87
15880;BME280;61999;51.514;14.614;2023-01-28T05:33:42;100991.22;;;-4.25;50.91
15880;BME280;61999;51.514;14.614;2023-01-28T05:36:10;101003.19;;;-4.22;50.62
15880;BME280;61999;51.514;14.614;2023-01-28T05:38:38;101005.78;;;-4.21;50.73
15880;BME280;61999;51.514;14.614;2023-01-28T05:41:06;100999.78;;;-4.21;50.50
15880;BME280;61999;51.514;14.614;2023-01-28T05:43:35;101011.84;;;-4.48;50.00
15880;BME280;61999;51.514;14.614;2023-01-28T05:46:25;101011.00;;;-4.77;50.89
15880;BME280;61999;51.514;14.614;2023-01-28T05:48:53;101009.22;;;-4.28;50.38
15880;BME280;61999;51.514;14.614;2023-01-28T05:51:21;101013.56;;;-4.74;50.67
15880;BME280;61999;51.514;14.614;2023-01-28T05:53:49;101009.22;;;-4.22;50.27
15880;BME280;61999;51.514;14.614;2023-01-28T05:56:17;101022.09;;;-4.29;50.22
15880;BME280;61999;51.514;14.614;2023-01-28T05:58:45;101024.69;;;-4.57;50.77
15880;BME280;61999;51.514;14.614;2023-01-28T06:01:15;101032.44;;;-4.66;50.73
15880;BME280;61999;51.514;14.614;2023-01-28T06:03:43;101030.72;;;-4.61;50.90
15880;BME280;61999;51.514;14.614;2023-01-28T06:06:10;101031.56;;;-4.51;51.01
15880;BME280;61999;51.514;14.614;2023-01-28T06:08:40;101037.56;;;-4.42;50.56
15880;BME280;61999;51.514;14.614;2023-01-28T06:11:08;101033.28;;;-4.93;51.47
15880;BME280;61999;51.514;14.614;2023-01-28T06:13:36;101031.56;;;-4.71;51.14
15880;BME280;61999;51.514;14.614;2023-01-28T06:16:05;101038.44;;;-4.78;51.15
15880;BME280;61999;51.514;14.614;2023-01-28T06:18:35;101042.72;;;-4.63;51.27
15880;BME280;61999;51.514;14.614;2023-01-28T06:21:03;101052.16;;;-4.59;51.20
15880;BME280;61999;51.514;14.614;2023-01-28T06:23:31;101046.13;;;-4.83;51.99
15880;BME280;61999;51.514;14.614;2023-01-28T06:26:26;101053.88;;;-4.69;51.41
15880;BME280;61999;51.514;14.614;2023-01-28T06:28:55;101062.44;;;-4.65;51.31
15880;BME280;61999;51.514;14.614;2023-01-28T06:31:23;101058.16;;;-4.75;50.93
15880;BME280;61999;51.514;14.614;2023-01-28T06:33:52;101061.59;;;-4.76;50.70
15880;BME280;61999;51.514;14.614;2023-01-28T06:36:20;101063.28;;;-4.94;51.34
15880;BME280;61999;51.514;14.614;2023-01-28T06:38:48;101066.72;;;-4.86;51.03
15880;BME280;61999;51.514;14.614;2023-01-28T06:41:16;101077.03;;;-4.64;49.99
15880;BME280;61999;51.514;14.614;2023-01-28T06:43:44;101075.31;;;-4.44;50.03
15880;BME280;61999;51.514;14.614;2023-01-28T06:46:12;101075.31;;;-4.44;50.09
15880;BME280;61999;51.514;14.614;2023-01-28T06:48:41;101077.88;;;-4.33;49.91
15880;BME280;61999;51.514;14.614;2023-01-28T06:51:10;101069.31;;;-4.33;49.70
15880;BME280;61999;51.514;14.614;2023-01-28T06:53:38;101075.28;;;-4.35;49.84
15880;BME280;61999;51.514;14.614;2023-01-28T06:56:07;101075.28;;;-4.38;49.87
15880;BME280;61999;51.514;14.614;2023-01-28T06:58:35;101083.88;;;-4.29;50.25
15880;BME280;61999;51.514;14.614;2023-01-28T07:01:03;101076.16;;;-4.19;50.92
15880;BME280;61999;51.514;14.614;2023-01-28T07:03:31;101073.53;;;-4.08;50.52
15880;BME280;61999;51.514;14.614;2023-01-28T07:05:59;101082.16;;;-4.18;50.45
15880;BME280;61999;51.514;14.614;2023-01-28T07:08:28;101081.28;;;-4.14;50.27
15880;BME280;61999;51.514;14.614;2023-01-28T07:10:57;101084.72;;;-4.12;50.31
15880;BME280;61999;51.514;14.614;2023-01-28T07:13:25;101080.44;;;-4.28;50.65
15880;BME280;61999;51.514;14.614;2023-01-28T07:15:53;101085.56;;;-4.25;51.01
15880;BME280;61999;51.514;14.614;2023-01-28T07:18:21;101079.56;;;-4.12;50.94
15880;BME280;61999;51.514;14.614;2023-01-28T07:20:49;101095.03;;;-4.69;50.31
15880;BME280;61999;51.514;14.614;2023-01-28T07:23:17;101094.19;;;-4.42;50.40
15880;BME280;61999;51.514;14.614;2023-01-28T07:25:47;101098.47;;;-4.19;50.46
15880;BME280;61999;51.514;14.614;2023-01-28T07:28:15;101098.47;;;-4.01;50.40
15880;BME280;61999;51.514;14.614;2023-01-28T07:30:49;101101.00;;;-3.87;50.15
15880;BME280;61999;51.514;14.614;2023-01-28T07:33:22;101095.84;;;-3.76;50.12
15880;BME280;61999;51.514;14.614;2023-01-28T07:35:50;101093.25;;;-3.76;50.33
15880;BME280;61999;51.514;14.614;2023-01-28T07:38:18;101099.22;;;-3.71;50.28
15880;BME280;61999;51.514;14.614;2023-01-28T07:40:48;101096.66;;;-3.71;50.55
15880;BME280;61999;51.514;14.614;2023-01-28T07:43:16;101095.78;;;-3.64;49.80
15880;BME280;61999;51.514;14.614;2023-01-28T07:45:44;101093.25;;;-3.73;49.47
15880;BME280;61999;51.514;14.614;2023-01-28T07:48:14;101096.63;;;-3.68;49.82
15880;BME280;61999;51.514;14.614;2023-01-28T07:50:42;101105.19;;;-3.52;49.90
15880;BME280;61999;51.514;14.614;2023-01-28T07:53:11;101105.16;;;-3.46;49.80
15880;BME280;61999;51.514;14.614;2023-01-28T07:55:39;101106.88;;;-3.43;49.60
15880;BME280;61999;51.514;14.614;2023-01-28T07:58:13;101101.72;;;-3.39;49.35
15880;BME280;61999;51.514;14.614;2023-01-28T08:00:42;101102.66;;;-3.69;48.25
15880;BME280;61999;51.514;14.614;2023-01-28T08:03:13;101109.44;;;-3.43;48.68
15880;BME280;61999;51.514;14.614;2023-01-28T08:05:50;101111.16;;;-3.42;49.10
15880;BME280;61999;51.514;14.614;2023-01-28T08:08:19;101105.97;;;-3.30;48.90
15880;BME280;61999;51.514;14.614;2023-01-28T08:10:47;101106.78;;;-3.28;48.43
15880;BME280;61999;51.514;14.614;2023-01-28T08:13:18;101105.03;;;-3.18;48.48
15880;BME280;61999;51.514;14.614;2023-01-28T08:15:46;101103.31;;;-3.18;47.99
15880;BME280;61999;51.514;14.614;2023-01-28T08:18:15;101107.53;;;-3.06;48.72
15880;BME280;61999;51.514;14.614;2023-01-28T08:20:43;101103.34;;;-3.21;47.73
15880;BME280;61999;51.514;14.614;2023-01-28T08:23:16;101109.28;;;-3.07;47.90
15880;BME280;61999;51.514;14.614;2023-01-28T08:25:46;101112.69;;;-3.08;47.51
15880;BME280;61999;51.514;14.614;2023-01-28T08:28:16;101111.13;;;-3.33;47.39
15880;BME280;61999;51.514;14.614;2023-01-28T08:30:46;101109.28;;;-3.07;47.28
15880;BME280;61999;51.514;14.614;2023-01-28T08:33:16;101107.56;;;-3.05;47.05
15880;BME280;61999;51.514;14.614;2023-01-28T08:35:45;101100.59;;;-2.96;47.72
15880;BME280;61999;51.514;14.614;2023-01-28T08:38:13;101097.16;;;-2.95;47.96
15880;BME280;61999;51.514;14.614;2023-01-28T08:40:43;101102.34;;;-2.95;47.86
15880;BME280;61999;51.514;14.614;2023-01-28T08:43:11;101101.47;;;-2.93;47.60
15880;BME280;61999;51.514;14.614;2023-01-28T08:45:40;101104.13;;;-3.10;47.23
15880;BME280;61999;51.514;14.614;2023-01-28T08:48:14;101107.44;;;-2.91;47.65
15880;BME280;61999;51.514;14.614;2023-01-28T08:50:42;101109.16;;;-2.91;47.72
15880;BME280;61999;51.514;14.614;2023-01-28T08:53:16;101108.41;;;-3.09;47.69
15880;BME280;61999;51.514;14.614;2023-01-28T08:55:45;101109.94;;;-2.75;47.66
15880;BME280;61999;51.514;14.614;2023-01-28T08:58:16;101113.34;;;-2.70;47.77
15880;BME280;61999;51.514;14.614;2023-01-28T09:00:46;101120.25;;;-2.75;47.47
15880;BME280;61999;51.514;14.614;2023-01-28T09:03:15;101120.38;;;-2.94;48.08
15880;BME280;61999;51.514;14.614;2023-01-28T09:05:44;101121.91;;;-2.65;48.25
15880;BME280;61999;51.514;14.614;2023-01-28T09:08:14;101122.75;;;-2.62;46.50
15880;BME280;61999;51.514;14.614;2023-01-28T09:10:43;101129.63;;;-2.61;46.48
15880;BME280;61999;51.514;14.614;2023-01-28T09:13:13;101136.59;;;-2.75;46.85
15880;BME280;61999;51.514;14.614;2023-01-28T09:15:42;101142.00;;;-3.21;45.81
15880;BME280;61999;51.514;14.614;2023-01-28T09:18:11;101147.13;;;-3.15;46.08
15880;BME280;61999;51.514;14.614;2023-01-28T09:20:40;101141.97;;;-3.15;46.41
15880;BME280;61999;51.514;14.614;2023-01-28T09:23:08;101140.00;;;-2.67;46.18
15880;BME280;61999;51.514;14.614;2023-01-28T09:25:37;101136.38;;;-2.41;46.32
15880;BME280;61999;51.514;14.614;2023-01-28T09:28:06;101138.31;;;-2.74;43.84
15880;BME280;61999;51.514;14.614;2023-01-28T09:30:34;101144.03;;;-2.32;45.82
15880;BME280;61999;51.514;14.614;2023-01-28T09:33:04;101137.28;;;-2.51;43.42
15880;BME280;61999;51.514;14.614;2023-01-28T09:35:34;101150.06;;;-2.36;44.56
15880;BME280;61999;51.514;14.614;2023-01-28T09:38:02;101147.34;;;-2.19;43.67
15880;BME280;61999;51.514;14.614;2023-01-28T09:40:35;101148.41;;;-2.42;43.44
15880;BME280;61999;51.514;14.614;2023-01-28T09:46:12;101150.06;;;-2.33;44.24
15880;BME280;61999;51.514;14.614;2023-01-28T09:48:46;101152.47;;;-2.10;44.08
15880;BME280;61999;51.514;14.614;2023-01-28T09:51:31;101154.97;;;-2.02;44.24
15880;BME280;61999;51.514;14.614;2023-01-28T09:54:14;101148.81;;;-1.91;44.53
15880;BME280;61999;51.514;14.614;2023-01-28T09:56:47;101153.16;;;-1.94;43.95
15880;BME280;61999;51.514;14.614;2023-01-28T09:59:20;101158.22;;;-1.85;43.96
15880;BME280;61999;51.514;14.614;2023-01-28T10:01:58;101147.88;;;-1.79;44.37
15880;BME280;61999;51.514;14.614;2023-01-28T10:04:46;101147.91;;;-1.85;43.98
15880;BME280;61999;51.514;14.614;2023-01-28T10:07:30;101153.00;;;-1.76;44.15
15880;BME280;61999;51.514;14.614;2023-01-28T10:10:07;101152.19;;;-1.81;44.26
15880;BME280;61999;51.514;14.614;2023-01-28T10:12:59;101155.97;;;-2.19;41.84
15880;BME280;61999;51.514;14.614;2023-01-28T10:15:53;101159.34;;;-2.07;42.82
15880;BME280;61999;51.514;14.614;2023-01-28T10:18:35;101154.56;;;-2.58;42.55
15880;BME280;61999;51.514;14.614;2023-01-28T10:21:16;101162.06;;;-2.26;42.29
15880;BME280;61999;51.514;14.614;2023-01-28T10:23:59;101160.47;;;-2.45;42.72
15880;BME280;61999;51.514;14.614;2023-01-28T10:26:35;101161.19;;;-2.25;43.46
15880;BME280;61999;51.514;14.614;2023-01-28T10:29:13;101168.88;;;-2.16;43.93
15880;BME280;61999;51.514;14.614;2023-01-28T10:31:52;101167.13;;;-2.17;43.22
15880;BME280;61999;51.514;14.614;2023-01-28T10:34:21;101165.44;;;-2.19;42.93
15880;BME280;61999;51.514;14.614;2023-01-28T10:36:50;101164.59;;;-2.23;42.47
15880;BME280;61999;51.514;14.614;2023-01-28T10:39:23;101162.25;;;-2.53;42.25
15880;BME280;61999;51.514;14.614;2023-01-28T10:41:52;101163.13;;;-2.55;42.96
15880;BME280;61999;51.514;14.614;2023-01-28T10:44:33;101172.63;;;-2.60;42.60
15880;BME280;61999;51.514;14.614;2023-01-28T10:47:10;101163.94;;;-2.46;43.24
15880;BME280;61999;51.514;14.614;2023-01-28T10:49:44;101171.63;;;-2.39;43.31
15880;BME280;61999;51.514;14.614;2023-01-28T10:52:15;101168.91;;;-2.25;42.69
15880;BME280;61999;51.514;14.614;2023-01-28T10:54:45;101170.88;;;-2.55;42.92
15880;BME280;61999;51.514;14.614;2023-01-28T10:57:17;101179.53;;;-2.65;42.25
15880;BME280;61999;51.514;14.614;2023-01-28T10:59:45;101170.72;;;-2.30;42.18
15880;BME280;61999;51.514;14.614;2023-01-28T11:02:25;101173.47;;;-2.53;41.72
15880;BME280;61999;51.514;14.614;2023-01-28T11:05:04;101174.44;;;-2.74;42.04
15880;BME280;61999;51.514;14.614;2023-01-28T11:07:33;101169.06;;;-2.40;42.40
15880;BME280;61999;51.514;14.614;2023-01-28T11:10:02;101167.19;;;-2.23;42.74
15880;BME280;61999;51.514;14.614;2023-01-28T11:12:30;101177.47;;;-2.17;42.10
15880;BME280;61999;51.514;14.614;2023-01-28T11:15:00;101168.91;;;-2.19;41.99
15880;BME280;61999;51.514;14.614;2023-01-28T11:17:33;101160.41;;;-2.36;42.26
15880;BME280;61999;51.514;14.614;2023-01-28T11:20:12;101160.53;;;-2.51;42.60
15880;BME280;61999;51.514;14.614;2023-01-28T11:22:47;101170.88;;;-2.59;41.72
15880;BME280;61999;51.514;14.614;2023-01-28T11:25:23;101171.69;;;-2.51;41.35
15880;BME280;61999;51.514;14.614;2023-01-28T11:27:54;101156.47;;;-2.94;41.48
15880;BME280;61999;51.514;14.614;2023-01-28T11:30:25;101152.09;;;-2.75;41.46
15880;BME280;61999;51.514;14.614;2023-01-28T11:32:57;101162.28;;;-2.60;41.93
15880;BME280;61999;51.514;14.614;2023-01-28T11:35:30;101162.22;;;-2.47;42.11
15880;BME280;61999;51.514;14.614;2023-01-28T11:37:59;101158.75;;;-2.43;42.03
15880;BME280;61999;51.514;14.614;2023-01-28T11:40:29;101155.22;;;-2.36;42.19
15880;BME280;61999;51.514;14.614;2023-01-28T11:42:57;101148.41;;;-2.43;41.48
15880;BME280;61999;51.514;14.614;2023-01-28T11:45:40;101148.47;;;-2.51;41.59
15880;BME280;61999;51.514;14.614;2023-01-28T11:48:29;101155.63;;;-2.93;42.16
15880;BME280;61999;51.514;14.614;2023-01-28T11:51:12;101145.22;;;-2.82;42.56
15880;BME280;61999;51.514;14.614;2023-01-28T11:54:23;101141.69;;;-2.64;42.00
15880;BME280;61999;51.514;14.614;2023-01-28T11:57:15;101143.34;;;-2.56;42.17
15880;BME280;61999;51.514;14.614;2023-01-28T12:00:01;101142.38;;;-2.42;42.52
15880;BME280;61999;51.514;14.614;2023-01-28T12:02:51;101148.34;;;-2.34;42.63
15880;BME280;61999;51.514;14.614;2023-01-28T12:05:56;101146.75;;;-2.53;42.30
15880;BME280;61999;51.514;14.614;2023-01-28T12:08:39;101144.34;;;-2.80;41.46
15880;BME280;61999;51.514;14.614;2023-01-28T12:11:24;101137.34;;;-2.56;42.28
15880;BME280;61999;51.514;14.614;2023-01-28T12:14:24;101132.94;;;-2.43;42.29
15880;BME280;61999;51.514;14.614;2023-01-28T12:17:13;101126.97;;;-2.50;42.51
15880;BME280;61999;51.514;14.614;2023-01-28T12:20:01;101129.66;;;-2.67;41.61
15880;BME280;61999;51.514;14.614;2023-01-28T12:23:13;101128.66;;;-2.46;42.05
15880;BME280;61999;51.514;14.614;2023-01-28T12:26:03;101124.59;;;-2.85;41.68
15880;BME280;61999;51.514;14.614;2023-01-28T12:28:49;101130.59;;;-2.75;42.39
15880;BME280;61999;51.514;14.614;2023-01-28T12:31:41;101122.75;;;-2.65;42.31
15880;BME280;61999;51.514;14.614;2023-01-28T12:34:43;101123.56;;;-2.55;43.09
15880;BME280;61999;51.514;14.614;2023-01-28T12:37:26;101117.69;;;-2.77;42.44
15880;BME280;61999;51.514;14.614;2023-01-28T12:40:12;101120.03;;;-2.48;43.06
15880;BME280;61999;51.514;14.614;2023-01-28T12:42:47;101116.56;;;-2.41;42.56
15880;BME280;61999;51.514;14.614;2023-01-28T12:45:23;101123.44;;;-2.40;42.46
15880;BME280;61999;51.514;14.614;2023-01-28T12:48:02;101121.13;;;-2.75;43.89
15880;BME280;61999;51.514;14.614;2023-01-28T12:50:39;101116.19;;;-3.10;44.97
15880;BME280;61999;51.514;14.614;2023-01-28T12:53:20;101112.59;;;-2.85;44.38
15880;BME280;61999;51.514;14.614;2023-01-28T12:55:55;101117.06;;;-3.17;45.18
15880;BME280;61999;51.514;14.614;2023-01-28T12:58:38;101114.44;;;-3.10;44.85
15880;BME280;61999;51.514;14.614;2023-01-28T13:01:12;101114.19;;;-2.67;43.95
15880;BME280;61999;51.514;14.614;2023-01-28T13:03:52;101125.63;;;-3.14;43.51
15880;BME280;61999;51.514;14.614;2023-01-28T13:06:28;101112.53;;;-2.80;43.79
15880;BME280;61999;51.514;14.614;2023-01-28T13:09:02;101112.66;;;-2.98;43.52
15880;BME280;61999;51.514;14.614;2023-01-28T13:11:38;101120.16;;;-2.62;43.60
15880;BME280;61999;51.514;14.614;2023-01-28T13:14:08;101117.66;;;-2.72;42.41
15880;BME280;61999;51.514;14.614;2023-01-28T13:16:38;101118.84;;;-3.35;44.60
15880;BME280;61999;51.514;14.614;2023-01-28T13:19:24;101121.19;;;-2.84;43.61
15880;BME280;61999;51.514;14.614;2023-01-28T13:22:11;101121.22;;;-2.90;43.65